Latest Weather Observations for Alice Springs Airport

IDD60801

Issued at 4:31 pm CST Monday 25 May 2015 (issued every 30 minutes, with the page automatically refreshed every 10 minutes)

About weather observations | Map of weather stations | Latest weather observations for NT | Other Formats
Station Details ID: 015590 Name: ALICE SPRINGS AIRPORT Lat: -23.80 Lon: 133.89 Height: 546.0 m
Data from the previous 72 hours. | See also: Recent months at Alice Springs Airport
Date/Time
CST
Temp
°C
App
Temp
°C
Dew
Point
Rel
Hum
%
Delta-T
°C
Wind Press
QNH
hPa
Press
MSL
hPa
Rain
since 9 am
mm
Dir
 
Spd
km/h
Gust
km/h
Spd
kts
Gust
kts
25/04:00pm 21.7 17.6 2.4 28 9.3 ESE 13 17 7 9 1022.2 1021.0 0.0
25/03:30pm 21.7 18.1 3.0 29 9.1 ESE 11 15 6 8 1022.1 1020.9 0.0
25/02:30pm 21.7 19.1 4.0 31 8.8 E 7 11 4 6 1022.8 1021.7 0.0
25/02:00pm 21.2 18.1 3.7 31 8.6 E 9 15 5 8 1022.6 1021.5 0.0
25/01:30pm 21.1 17.4 4.2 33 8.4 E 13 19 7 10 1022.8 1021.7 0.0
25/01:00pm 21.3 17.5 3.9 32 8.6 ENE 13 19 7 10 1023.1 1022.0 0.0
25/12:30pm 20.8 16.7 4.2 33 8.2 ESE 15 20 8 11 1023.5 1022.4 0.0
25/12:00pm 19.8 16.2 5.0 37 7.4 ESE 13 20 7 11 1024.1 1022.9 0.0
25/11:30am 19.4 15.6 4.0 36 7.5 ESE 13 17 7 9 1024.8 1023.7 0.0
25/11:00am 19.0 15.2 3.7 36 7.4 E 13 19 7 10 1024.9 1023.8 0.0
25/10:30am 18.4 15.0 3.9 38 7.0 ESE 11 15 6 8 1025.5 1024.4 0.0
25/10:00am 18.1 15.0 3.5 38 7.0 E 9 11 5 6 1025.4 1024.3 0.0
25/09:30am 16.3 14.5 3.3 42 6.1 N 2 6 1 3 1025.2 1024.1 0.0
25/08:30am 12.6 10.9 2.0 48 4.7 CALM 0 0 0 0 1024.7 1023.6 0.0
25/08:00am 10.5 8.3 1.1 52 4.0 WSW 2 7 1 4 1024.9 1023.8 0.0
25/07:30am 8.9 5.4 1.3 59 3.2 W 9 11 5 6 1025.0 1023.9 0.0
25/07:00am 8.4 6.6 1.5 62 2.9 CALM 0 0 0 0 1024.3 1023.2 0.0
25/06:30am 8.6 5.6 1.8 62 2.9 WSW 7 9 4 5 1024.1 1022.9 0.0
25/05:30am 8.5 4.9 0.8 58 3.2 NNW 9 9 5 5 1023.5 1022.4 0.0
25/05:00am 7.8 4.2 0.5 60 3.0 WNW 9 9 5 5 1023.5 1022.4 0.0
25/04:30am 7.9 3.4 0.0 57 3.2 SSW 13 15 7 8 1023.5 1022.4 0.0
25/04:00am 8.9 5.8 1.6 60 3.1 W 7 7 4 4 1023.4 1022.3 0.0
25/03:30am 9.1 7.1 0.1 53 3.7 CALM 0 2 0 1 1023.5 1022.4 0.0
25/03:00am 11.2 7.6 0.9 49 4.4 ESE 9 11 5 6 1023.2 1022.1 0.0
25/02:30am 10.5 7.5 2.3 57 3.6 ENE 7 9 4 5 1023.6 1022.5 0.0
25/02:00am 11.2 8.3 1.5 51 4.2 ENE 6 7 3 4 1024.1 1022.9 0.0
25/01:30am 11.9 9.3 3.0 54 4.0 ESE 6 7 3 4 1024.2 1023.1 0.0
25/01:00am 12.0 9.0 2.0 50 4.4 E 7 7 4 4 1024.4 1023.3 0.0
25/12:30am 13.5 10.6 2.4 47 5.0 E 7 9 4 5 1024.5 1023.4 0.0
25/12:00am 13.9 10.8 1.5 43 5.5 ESE 7 9 4 5 1024.5 1023.4 0.0
 
Date/Time
CST
Temp
°C
App
Temp
°C
Dew
Point
Rel
Hum
%
Delta-T
°C
Wind Press
QNH
hPa
Press
MSL
hPa
Rain
since 9 am
mm
Dir
 
Spd
km/h
Gust
km/h
Spd
kts
Gust
kts
24/11:30pm 14.6 11.1 1.3 40 5.9 ESE 9 11 5 6 1024.8 1023.7 0.0
24/11:00pm 13.7 10.7 2.1 45 5.2 ESE 7 9 4 5 1024.8 1023.7 0.0
24/10:30pm 14.2 11.0 2.8 46 5.2 ESE 9 9 5 5 1024.8 1023.7 0.0
24/10:00pm 14.0 11.1 2.8 47 5.1 ESE 7 9 4 5 1024.7 1023.6 0.0
24/09:30pm 14.4 12.9 2.8 45 5.3 CALM 0 0 0 0 1024.5 1023.4 0.0
24/09:00pm 14.7 12.0 2.4 43 5.6 ESE 6 7 3 4 1024.3 1023.2 0.0
24/08:30pm 15.5 12.2 2.7 42 5.9 ESE 9 9 5 5 1024.0 1022.8 0.0
24/08:00pm 15.3 11.7 0.9 37 6.4 E 9 11 5 6 1023.6 1022.5 0.0
24/07:30pm 16.2 12.6 0.7 35 6.9 E 9 11 5 6 1023.3 1022.2 0.0
24/07:00pm 16.8 13.2 0.4 33 7.3 ESE 9 11 5 6 1023.2 1022.1 0.0
24/06:30pm 17.9 14.3 0.3 30 7.9 E 9 9 5 5 1022.9 1021.8 0.0
24/06:00pm 18.3 14.6 -0.1 29 8.2 ESE 9 9 5 5 1022.8 1021.7 0.0
24/05:30pm 19.6 15.0 -0.9 25 9.1 ESE 13 15 7 8 1021.9 1020.7 0.0
24/05:00pm 20.8 16.2 -0.8 23 9.7 ESE 13 17 7 9 1022.0 1020.8 0.0
24/04:30pm 20.9 16.7 -0.6 23 9.7 ESE 11 17 6 9 1021.8 1020.6 0.0
24/04:00pm 20.5 16.3 -1.0 23 9.6 ENE 11 17 6 9 1021.6 1020.5 0.0
24/03:30pm 20.8 16.2 -0.8 23 9.7 ESE 13 20 7 11 1021.8 1020.6 0.0
24/03:00pm 20.6 17.1 3.6 32 8.3 SE 11 15 6 8 1021.6 1020.5 0.0
24/02:30pm 20.5 16.7 -1.0 23 9.6 SE 9 15 5 8 1021.9 1020.7 0.0
24/02:00pm 21.4 17.3 -0.3 23 9.9 SE 11 19 6 10 1021.8 1020.6 0.0
24/01:30pm 20.8 17.1 0.0 25 9.5 ENE 9 15 5 8 1022.0 1020.8 0.0
24/01:00pm 20.2 16.2 0.3 26 9.1 NE 11 20 6 11 1022.7 1021.6 0.0
24/12:30pm 19.1 14.7 0.3 28 8.5 ENE 13 22 7 12 1022.9 1021.8 0.0
24/12:00pm 18.4 13.2 -0.2 28 8.3 ENE 17 26 9 14 1023.4 1022.3 0.0
24/11:30am 18.4 13.1 -0.6 27 8.4 NE 17 28 9 15 1023.9 1022.7 0.0
24/11:00am 18.0 12.2 -0.3 29 8.1 ENE 20 30 11 16 1024.0 1022.8 0.0
24/10:30am 16.8 12.0 0.0 32 7.4 E 15 28 8 15 1024.7 1023.6 0.0
24/10:00am 15.4 10.9 0.0 35 6.7 E 13 19 7 10 1024.8 1023.7 0.0
24/09:30am 13.9 10.5 -0.8 36 6.2 E 7 15 4 8 1024.9 1023.8 0.0
24/09:00am 12.1 7.8 -2.0 37 5.7 E 11 13 6 7 1024.4 1023.3 0.0
24/08:30am 9.2 5.7 -1.0 49 4.1 ENE 7 13 4 7 1024.1 1022.9 0.0
24/08:00am 5.5 2.9 -1.6 60 2.7 W 2 6 1 3 1024.4 1023.3 0.0
24/07:30am 2.1 -1.8 -1.8 75 1.4 W 9 11 5 6 1024.5 1023.4 0.0
24/07:00am 2.5 0.2 -2.2 71 1.7 CALM 0 0 0 0 1023.9 1022.7 0.0
24/06:30am 2.1 -0.2 -2.4 72 1.6 CALM 0 0 0 0 1023.6 1022.5 0.0
24/06:00am 1.6 -0.7 -2.0 77 1.3 CALM 0 0 0 0 1023.3 1022.2 0.0
24/05:30am 3.7 1.3 -3.3 60 2.5 CALM 0 2 0 1 1023.2 1022.1 0.0
24/05:00am 3.7 0.1 -3.3 60 2.5 NE 6 7 3 4 1023.0 1021.9 0.0
24/04:30am 3.5 -0.3 -4.0 58 2.6 S 7 9 4 5 1023.3 1022.2 0.0
24/04:00am 4.5 -0.5 -4.4 52 3.1 ENE 13 13 7 7 1023.0 1021.9 0.0
24/03:30am 3.9 1.5 -3.4 59 2.6 CALM 0 0 0 0 1023.3 1022.2 0.0
24/03:00am 4.7 2.2 -4.1 53 3.1 CALM 0 0 0 0 1023.3 1022.2 0.0
24/02:30am 5.3 1.8 -2.9 55 3.0 W 6 7 3 4 1023.5 1022.4 0.0
24/02:00am 5.0 1.8 -3.7 53 3.1 NW 4 9 2 5 1024.0 1022.8 0.0
24/01:30am 5.3 2.8 -4.0 51 3.3 CALM 0 0 0 0 1024.1 1022.9 0.0
24/01:00am 4.0 1.5 -4.4 54 2.9 CALM 0 0 0 0 1024.2 1023.1 0.0
24/12:30am 5.9 2.2 -3.1 52 3.3 WNW 7 9 4 5 1024.3 1023.2 0.0
24/12:00am 6.7 2.9 -3.7 47 3.8 W 7 11 4 6 1024.7 1023.6 0.0
 
Date/Time
CST
Temp
°C
App
Temp
°C
Dew
Point
Rel
Hum
%
Delta-T
°C
Wind Press
QNH
hPa
Press
MSL
hPa
Rain
since 9 am
mm
Dir
 
Spd
km/h
Gust
km/h
Spd
kts
Gust
kts
23/11:30pm 5.8 1.2 -4.0 49 3.5 W 11 13 6 7 1024.7 1023.6 0.0
23/11:00pm 6.8 4.0 -3.2 49 3.7 W 2 7 1 4 1024.3 1023.2 0.0
23/10:30pm 5.9 3.4 -3.8 50 3.5 CALM 0 0 0 0 1024.4 1023.3 0.0
23/10:00pm 6.7 4.3 -3.0 50 3.6 CALM 0 0 0 0 1024.4 1023.3 0.0
23/09:30pm 7.7 5.3 -3.3 45 4.1 CALM 0 0 0 0 1024.9 1023.8 0.0
23/09:00pm 8.7 6.2 -3.9 41 4.7 CALM 0 0 0 0 1024.6 1023.5 0.0
23/08:30pm 9.8 7.7 -1.1 46 4.4 CALM 0 6 0 3 1024.0 1022.8 0.0
23/08:00pm 11.2 7.3 -1.7 40 5.2 E 9 13 5 7 1023.9 1022.7 0.0
23/07:30pm 12.4 7.6 -2.6 35 6.0 ESE 13 13 7 7 1023.6 1022.5 0.0
23/07:00pm 13.6 9.1 -3.2 31 6.7 ESE 11 15 6 8 1023.4 1022.3 0.0
23/06:30pm 14.0 10.4 -2.0 33 6.6 E 7 9 4 5 1023.5 1022.4 0.0
23/06:00pm 15.3 11.3 -2.3 29 7.3 ENE 9 13 5 7 1023.5 1022.4 0.0
23/05:30pm 16.9 12.0 -3.6 24 8.4 E 13 19 7 10 1023.2 1022.1 0.0
23/05:00pm 17.5 11.7 -4.5 22 8.9 E 17 24 9 13 1022.9 1021.8 0.0
23/04:30pm 17.6 11.8 -4.7 21 9.0 E 17 24 9 13 1022.6 1021.5 0.0
23/04:00pm 17.9 12.2 -4.1 22 9.0 ESE 17 24 9 13 1022.8 1021.7 0.0
23/03:30pm 17.6 12.3 -3.4 23 8.7 E 15 22 8 12 1022.9 1021.8 0.0
23/03:00pm 17.7 12.1 -2.8 24 8.6 ESE 17 28 9 15 1023.0 1021.9 0.0
23/02:30pm 17.7 11.7 -2.8 24 8.6 E 19 28 10 15 1023.4 1022.3 0.0
23/02:00pm 16.7 11.2 -2.4 27 8.0 E 17 28 9 15 1023.9 1022.7 0.0
23/01:30pm 16.5 11.4 -2.0 28 7.8 ESE 15 20 8 11 1024.4 1023.3 0.0
23/01:00pm 15.8 10.3 -1.8 30 7.4 ESE 17 28 9 15 1024.8 1023.7 0.0
23/12:30pm 15.3 9.9 -1.6 31 7.1 E 17 28 9 15 1025.4 1024.3 0.0
23/12:00pm 14.3 8.5 -1.2 34 6.5 E 19 28 10 15 1025.8 1024.6 0.0
23/11:30am 14.2 8.2 -1.7 33 6.6 E 20 30 11 16 1026.1 1025.0 0.0
23/11:00am 13.3 6.5 -1.5 36 6.1 E 24 32 13 17 1026.8 1025.7 0.0
23/10:30am 12.4 5.3 -0.9 40 5.5 ENE 26 33 14 18 1027.1 1026.0 0.0
23/10:00am 11.9 4.5 -1.0 41 5.3 ENE 28 37 15 20 1027.1 1026.0 0.0
23/09:30am 11.0 4.0 -0.7 44 4.8 E 26 33 14 18 1027.3 1026.2 0.0
23/09:00am 9.6 5.0 -1.1 47 4.3 E 13 19 7 10 1027.1 1026.0 0.0
23/08:30am 7.2 4.7 -1.3 55 3.3 SW 2 6 1 3 1027.4 1026.4 0.0
23/08:00am 3.5 1.2 -2.6 64 2.2 CALM 0 6 0 3 1027.2 1026.1 0.0
23/07:30am 0.1 -3.7 -3.9 74 1.4 W 7 7 4 4 1027.1 1026.0 0.0
23/07:00am -1.2 -3.7 -4.4 79 1.0 CALM 0 0 0 0 1026.7 1025.6 0.0
23/06:30am -0.6 -3.0 -3.0 84 0.8 CALM 0 0 0 0 1026.4 1025.3 0.0
23/06:00am 0.8 -2.3 -3.0 76 1.4 SW 4 6 2 3 1026.3 1025.2 0.0
23/05:30am 0.4 - - - - SW 7 9 4 5 1026.5 1025.4 0.0
23/05:00am 0.6 - - - - W 7 9 4 5 1026.2 1025.1 0.0
23/04:30am 1.0 - - - - WNW 9 9 5 5 1026.2 1025.1 0.0
23/04:00am 1.0 - - - - CALM 0 0 0 0 1026.1 1025.0 0.0
23/03:30am 1.5 - - - - CALM 0 0 0 0 1026.0 1024.9 0.0
23/03:00am 2.4 -0.6 -2.0 73 1.6 W 4 7 2 4 1026.1 1025.0 0.0
23/02:30am 2.4 -0.2 -2.0 73 1.6 W 2 7 1 4 1026.1 1025.0 0.0
23/02:00am 2.6 -1.1 -3.1 66 2.0 WSW 7 11 4 6 1026.5 1025.4 0.0
23/01:30am 3.5 1.2 -2.3 66 2.1 CALM 0 0 0 0 1026.3 1025.2 0.0
23/01:00am 3.6 0.6 -2.2 66 2.1 S 4 7 2 4 1026.4 1025.3 0.0
23/12:30am 4.9 1.3 -2.4 59 2.7 SSW 7 9 4 5 1026.6 1025.5 0.0
23/12:00am 4.4 1.1 -1.5 65 2.2 WSW 6 7 3 4 1026.6 1025.5 0.0
 
Date/Time
CST
Temp
°C
App
Temp
°C
Dew
Point
Rel
Hum
%
Delta-T
°C
Wind Press
QNH
hPa
Press
MSL
hPa
Rain
since 9 am
mm
Dir
 
Spd
km/h
Gust
km/h
Spd
kts
Gust
kts
22/11:30pm 5.9 2.3 -2.4 55 3.1 ENE 7 9 4 5 1026.7 1025.6 0.0
22/11:00pm 6.8 2.9 -1.5 55 3.2 NE 9 11 5 6 1026.7 1025.6 0.0
22/10:30pm 7.3 3.9 -0.5 57 3.1 NE 7 9 4 5 1026.9 1025.8 0.0
22/10:00pm 8.7 5.3 -0.8 51 3.8 ESE 7 7 4 4 1027.2 1026.1 0.0
22/09:38pm 9.3 5.8 -1.2 48 4.2 ESE 7 9 4 5 1027.1 1026.0 0.0
22/09:30pm 9.3 5.4 -1.2 48 4.2 ESE 9 9 5 5 1027.1 1026.0 0.0
22/09:20pm 9.2 5.3 -1.7 46 4.3 SE 9 11 5 6 1027.0 1025.9 0.0
22/09:00pm 9.4 4.8 -1.4 47 4.3 SE 13 15 7 8 1027.1 1026.0 0.0
22/08:30pm 10.5 6.2 -1.5 43 4.8 SSE 11 13 6 7 1027.1 1026.0 0.0
22/08:00pm 11.9 7.6 -1.7 39 5.5 SE 11 15 6 8 1027.0 1025.9 0.0
22/07:30pm 12.5 7.8 -1.7 37 5.8 ESE 13 17 7 9 1026.6 1025.5 0.0
22/07:00pm 13.2 8.0 -2.7 33 6.4 ESE 15 26 8 14 1025.7 1024.5 0.0
22/06:30pm 13.9 8.3 -3.0 31 6.8 ESE 17 22 9 12 1025.5 1024.4 0.0
22/06:00pm 14.5 8.5 -3.1 29 7.1 ESE 19 26 10 14 1025.5 1024.4 0.0
22/05:30pm 14.9 9.2 -3.5 28 7.4 ESE 17 26 9 14 1025.7 1024.5 0.0
22/05:00pm 15.4 9.4 -3.4 27 7.6 SE 19 28 10 15 1025.9 1024.8 0.0

Other Formats:

Comma delimited format used in spreadsheet applications
http://www.bom.gov.au/fwo/IDD60801/IDD60801.94326.axf

JavaScript Object Notation format (JSON) in row-major order
http://www.bom.gov.au/fwo/IDD60801/IDD60801.94326.json